METAR Formatted Surface Weather Observation
Issued by NWS

Home | Current Version | Previous Version | Text Only | Print | Product List | Glossary On
Versions: 1 2 3 4 5 6 7 8 9 10 11 12 13 14
000
SAUS42 KTAE 240851 COR
MTR1J0
METAR K1J0 240758Z AUTO 00000KT 10SM CLR 12/12 A3001 RMK AO2 SLP118
T01220122 TSNO $



USA.gov is the U.S. government's official web portal to all federal, state and local government web resources and services.